This is the latest recevied weather packets stored in our database for station/object S56IAR-13. If no packets are shown the sender has not sent any weather packets the latest 10 day(s).
| Time | Temp. | Humidity | Pressure | Rain* | Wind** | Luminosity | Snow |
|---|---|---|---|---|---|---|---|
| 1777860905 | 6.11° C | 97% | 964.5 hPa | 0 mm | - | 0 W/m² | - |
| 1777860304 | 6.67° C | 96% | 964.4 hPa | 0 mm | - | 0 W/m² | - |
| 1777859705 | 6.67° C | 96% | 964.3 hPa | 0 mm | - | 0 W/m² | - |
| 1777858203 | 6.67° C | 96% | 964.3 hPa | 0 mm | - | 0 W/m² | - |
| 1777857136 | 6.67° C | 96% | 964.4 hPa | 0 mm | - | 0 W/m² | - |
| 1777855635 | 7.22° C | 95% | 964.5 hPa | 0 mm | - | 0 W/m² | - |
| 1777852203 | 7.22° C | 95% | 964.4 hPa | 0 mm | - | 0 W/m² | - |
| 1777851603 | 7.22° C | 94% | 964.7 hPa | 0 mm | - | 0 W/m² | - |
| 1777849505 | 7.22° C | 94% | 964.7 hPa | 0 mm | - | 0 W/m² | - |
| 1777847705 | 7.22° C | 93% | 964.6 hPa | 0 mm | - | 0 W/m² | - |
| 1777847533 | 7.22° C | 94% | 964.8 hPa | 0 mm | - | 0 W/m² | - |
| 1777844704 | 7.78° C | 92% | 964.4 hPa | 0 mm | - | 0 W/m² | - |
| 1777843033 | 7.78° C | 90% | 964.3 hPa | 0 mm | - | 0 W/m² | - |
| 1777841104 | 8.89° C | 88% | 964.1 hPa | 0 mm | - | 0 W/m² | - |
| 1777840205 | 8.89° C | 87% | 964.1 hPa | 0 mm | - | 0 W/m² | - |
| 1777839903 | 8.89° C | 87% | 964.3 hPa | 0 mm | - | 0 W/m² | - |
| 1777836903 | 10.56° C | 80% | 963.9 hPa | 0 mm | - | 0 W/m² | - |
| 1777835703 | 10.56° C | 76% | 964 hPa | 0 mm | - | 0 W/m² | - |
| 1777833603 | 11.67° C | 76% | 963.8 hPa | 0 mm | - | 0 W/m² | - |
| 1777832104 | 12.22° C | 78% | 963.7 hPa | 0 mm | - | 1 W/m² | - |
| 1777830735 | 13.33° C | 74% | 963.5 hPa | 0 mm | - | 8 W/m² | - |
| 1777828505 | 15.56° C | 68% | 963.4 hPa | 0 mm | - | 24 W/m² | - |
| 1777828036 | 16.11° C | 67% | 963.5 hPa | 0 mm | - | 26 W/m² | - |
| 1777827005 | 16.67° C | 57% | 963.3 hPa | 0 mm | - | 31 W/m² | - |
| 1777826703 | 17.78° C | 62% | 963.4 hPa | 0 mm | - | 33 W/m² | - |
* Rain latest hour (hover to see other rain measurements)
** Current wind speed in m/s (hover to see current wind gust speed)